Time;durP1;ratioP1;P1;durP2;ratioP2;P2;SDS_P1;SDS_P2;PMS_P1;PMS_P2;Temp;Humidity;BMP_temperature;BMP_pressure;BME280_temperature;BME280_humidity;BME280_pressure;Samples;Min_cycle;Max_cycle;Signal;HPM_P1;HPM_P2
2022/07/02 00:02:24;;;;;;;1.47;1.37;;;17.30;72.70;;;;;;5048990;28;20446;-46
2022/07/02 00:04:59;;;;;;;1.20;1.10;;;17.30;72.80;;;;;;5064660;28;20450;-46
2022/07/02 00:07:27;;;;;;;1.40;1.30;;;17.30;72.80;;;;;;5065186;28;20980;-46
2022/07/02 00:09:56;;;;;;;1.40;1.30;;;17.30;71.60;;;;;;5050576;28;20958;-46
2022/07/02 00:12:24;;;;;;;3.67;1.70;;;17.30;71.40;;;;;;5050756;28;20823;-46
2022/07/02 00:14:54;;;;;;;1.83;1.73;;;17.20;71.70;;;;;;5061157;28;20442;-47
2022/07/02 00:17:21;;;;;;;4.03;1.77;;;17.20;72.10;;;;;;5062421;28;21020;-46
2022/07/02 00:19:50;;;;;;;2.80;1.53;;;17.20;71.90;;;;;;5065747;28;20486;-46
2022/07/02 00:22:17;;;;;;;1.77;1.47;;;17.10;71.60;;;;;;5033984;28;20452;-46
2022/07/02 00:24:45;;;;;;;2.83;2.17;;;17.10;72.10;;;;;;5064431;28;20442;-46
2022/07/02 00:27:14;;;;;;;1.90;1.80;;;17.10;72.30;;;;;;5051358;28;20525;-46
2022/07/02 00:29:57;;;;;;;4.10;2.13;;;17.10;72.60;;;;;;5048486;28;20824;-46
2022/07/02 00:32:28;;;;;;;1.63;1.53;;;17.10;72.60;;;;;;5062642;28;20954;-46
2022/07/02 00:34:57;;;;;;;2.27;2.07;;;17.10;72.90;;;;;;5049478;28;21062;-46
2022/07/02 00:37:28;;;;;;;3.33;2.50;;;17.00;73.10;;;;;;5060840;28;20475;-46
2022/07/02 00:39:55;;;;;;;2.33;2.13;;;17.00;73.10;;;;;;5063891;28;20482;-46
2022/07/02 00:42:25;;;;;;;3.07;2.77;;;17.00;73.30;;;;;;5062851;28;20466;-46
2022/07/02 00:44:53;;;;;;;4.33;1.93;;;17.00;73.40;;;;;;5064227;28;20537;-46
2022/07/02 00:47:23;;;;;;;2.90;2.70;;;17.00;73.10;;;;;;5047811;28;20481;-46
2022/07/02 00:49:50;;;;;;;2.40;1.87;;;16.90;72.90;;;;;;5063197;28;20538;-46
2022/07/02 00:52:17;;;;;;;2.10;1.90;;;16.90;73.10;;;;;;5046108;28;20489;-46
2022/07/02 00:54:44;;;;;;;2.10;1.80;;;16.90;73.40;;;;;;5060989;28;20938;-46
2022/07/02 00:57:11;;;;;;;2.80;2.30;;;16.90;73.40;;;;;;5049066;28;20461;-46
2022/07/02 00:59:38;;;;;;;2.20;2.03;;;16.80;73.50;;;;;;5062679;28;20859;-46
2022/07/02 01:02:08;;;;;;;1.90;1.80;;;16.80;73.50;;;;;;5050586;28;20445;-46
2022/07/02 01:04:35;;;;;;;2.60;2.40;;;16.80;73.60;;;;;;5042193;28;20444;-46
2022/07/02 01:07:06;;;;;;;4.40;2.50;;;16.70;73.90;;;;;;5028125;28;20534;-46
2022/07/02 01:12:24;;;;;;;2.37;1.90;;;16.70;74.10;;;;;;5061409;28;20446;-46
2022/07/02 01:14:52;;;;;;;2.30;1.63;;;16.70;74.20;;;;;;5040842;28;20471;-46
2022/07/02 01:17:18;;;;;;;2.83;2.23;;;16.70;74.10;;;;;;5054257;28;20472;-46
2022/07/02 01:19:45;;;;;;;2.23;2.03;;;16.60;74.10;;;;;;5063027;28;20492;-46
2022/07/02 01:22:14;;;;;;;2.13;1.93;;;16.70;73.10;;;;;;5060479;28;20821;-46
2022/07/02 01:24:43;;;;;;;6.43;2.00;;;16.60;73.10;;;;;;5064000;28;20884;-46
2022/07/02 01:27:10;;;;;;;3.83;2.50;;;16.60;73.40;;;;;;5049089;28;20485;-46
2022/07/02 01:29:37;;;;;;;2.53;1.93;;;16.60;74.00;;;;;;5047150;28;20446;-46
2022/07/02 01:32:04;;;;;;;2.70;2.27;;;16.50;73.70;;;;;;5046341;28;20462;-46
2022/07/02 01:34:44;;;;;;;2.60;1.73;;;16.50;73.80;;;;;;5059800;28;20461;-46
2022/07/02 01:37:13;;;;;;;4.00;2.13;;;16.40;74.10;;;;;;5045377;28;20437;-46
2022/07/02 01:39:41;;;;;;;2.30;2.10;;;16.40;74.10;;;;;;5062013;28;20483;-46
2022/07/02 01:42:09;;;;;;;3.33;3.03;;;16.40;74.10;;;;;;5033805;28;20808;-46
2022/07/02 01:44:36;;;;;;;2.70;2.00;;;16.40;74.10;;;;;;5062899;28;20437;-46
2022/07/02 01:47:06;;;;;;;2.60;2.00;;;16.40;73.80;;;;;;5045012;28;20452;-46
2022/07/02 01:49:34;;;;;;;2.40;2.20;;;16.30;73.40;;;;;;5062233;28;20449;-46
2022/07/02 01:52:02;;;;;;;2.83;1.90;;;16.30;73.70;;;;;;5047578;28;20838;-46
2022/07/02 01:54:29;;;;;;;3.27;1.70;;;16.30;73.90;;;;;;5062396;28;20441;-46
2022/07/02 01:56:56;;;;;;;3.53;2.10;;;16.20;73.90;;;;;;5060604;28;20862;-46
2022/07/02 01:59:23;;;;;;;2.23;2.03;;;16.20;74.10;;;;;;5059178;28;20792;-46
2022/07/02 02:01:50;;;;;;;2.00;1.87;;;16.20;74.10;;;;;;5046875;28;20449;-46
2022/07/02 02:04:17;;;;;;;2.80;2.60;;;16.20;74.00;;;;;;5061994;28;20812;-46
2022/07/02 02:06:44;;;;;;;3.60;2.10;;;16.20;74.10;;;;;;5048755;28;20446;-46
2022/07/02 02:09:11;;;;;;;2.20;2.10;;;16.20;73.70;;;;;;5067566;28;20446;-46
2022/07/02 02:11:38;;;;;;;2.60;2.20;;;16.20;73.30;;;;;;5061346;28;20443;-46
2022/07/02 02:14:05;;;;;;;2.30;2.10;;;16.10;73.70;;;;;;5062332;28;20454;-48
2022/07/02 02:16:32;;;;;;;3.10;1.77;;;16.10;74.20;;;;;;5064988;28;20819;-48
2022/07/02 02:18:59;;;;;;;2.00;1.80;;;16.00;74.40;;;;;;5060746;28;20928;-48
2022/07/02 02:21:28;;;;;;;2.83;1.93;;;16.00;74.60;;;;;;5059080;28;20485;-48
2022/07/02 02:23:56;;;;;;;3.00;2.00;;;16.00;74.70;;;;;;5062011;28;20460;-48
2022/07/02 02:26:23;;;;;;;1.97;1.77;;;15.90;74.80;;;;;;5028697;28;20451;-49
2022/07/02 02:28:50;;;;;;;3.20;1.90;;;15.90;74.90;;;;;;5061254;28;20451;-48
2022/07/02 02:31:17;;;;;;;3.97;1.70;;;15.90;75.10;;;;;;5046105;28;20932;-48
2022/07/02 02:33:44;;;;;;;2.77;1.87;;;15.90;75.30;;;;;;5042920;28;20561;-45
2022/07/02 02:36:10;;;;;;;2.13;1.93;;;15.90;75.60;;;;;;5056922;28;20454;-45
2022/07/02 02:38:37;;;;;;;1.73;1.60;;;15.90;75.70;;;;;;5060021;28;20437;-45
2022/07/02 02:41:05;;;;;;;2.17;1.83;;;15.90;75.70;;;;;;5058334;28;20485;-45
2022/07/02 02:43:33;;;;;;;2.20;2.00;;;15.90;75.90;;;;;;5042957;28;20797;-45
2022/07/02 02:46:02;;;;;;;6.13;2.20;;;15.90;75.80;;;;;;5061590;28;20449;-45
2022/07/02 02:48:29;;;;;;;1.53;1.43;;;15.90;75.60;;;;;;5044274;28;20446;-45
2022/07/02 02:50:57;;;;;;;2.73;2.30;;;15.90;75.40;;;;;;5061146;28;20456;-45
2022/07/02 02:53:24;;;;;;;1.80;1.60;;;15.90;74.90;;;;;;5063328;28;20449;-45
2022/07/02 02:55:51;;;;;;;4.60;2.17;;;15.90;74.10;;;;;;5060382;28;20454;-45
2022/07/02 02:58:18;;;;;;;1.97;1.77;;;15.90;74.40;;;;;;5065063;28;20446;-45
2022/07/02 03:00:45;;;;;;;3.30;2.00;;;15.90;74.90;;;;;;5044139;28;20495;-44
2022/07/02 03:03:12;;;;;;;2.53;1.43;;;15.80;75.10;;;;;;5049797;28;20495;-44
2022/07/02 03:05:39;;;;;;;3.20;2.00;;;15.80;74.40;;;;;;5060954;28;20442;-45
2022/07/02 03:08:05;;;;;;;2.27;1.80;;;15.80;74.10;;;;;;5064228;28;20450;-44
2022/07/02 03:10:33;;;;;;;3.77;1.63;;;15.80;74.40;;;;;;5067594;28;20449;-45
2022/07/02 03:12:59;;;;;;;1.87;1.77;;;15.80;74.60;;;;;;5062227;28;20457;-45
2022/07/02 03:15:26;;;;;;;2.00;1.80;;;15.70;74.60;;;;;;5063536;28;20453;-45
2022/07/02 03:17:53;;;;;;;1.50;1.40;;;15.70;74.60;;;;;;5063132;28;20520;-45
2022/07/02 03:20:20;;;;;;;2.13;1.73;;;15.60;74.40;;;;;;5058317;28;20997;-44
2022/07/02 03:22:47;;;;;;;2.10;2.00;;;15.60;74.00;;;;;;5064753;28;21212;-44
2022/07/02 03:25:14;;;;;;;2.13;1.93;;;15.60;74.20;;;;;;5062210;28;20537;-44
2022/07/02 03:27:41;;;;;;;1.70;1.53;;;15.50;74.70;;;;;;5051844;28;20446;-44
2022/07/02 03:30:08;;;;;;;1.90;1.50;;;15.50;74.90;;;;;;5048246;28;20471;-44
2022/07/02 03:32:36;;;;;;;4.03;2.07;;;15.60;74.90;;;;;;5064533;28;20441;-44
2022/07/02 03:35:02;;;;;;;2.60;2.07;;;15.50;74.90;;;;;;5062474;28;20454;-45
2022/07/02 03:37:29;;;;;;;2.07;1.60;;;15.50;75.00;;;;;;5050798;28;20875;-44
2022/07/02 03:39:56;;;;;;;5.60;2.40;;;15.50;75.10;;;;;;5064085;28;20450;-44
2022/07/02 03:42:23;;;;;;;2.40;2.20;;;15.50;74.50;;;;;;5062954;28;20439;-44
2022/07/02 03:44:50;;;;;;;3.20;2.30;;;15.50;74.40;;;;;;5063348;28;20440;-44
2022/07/02 03:47:17;;;;;;;2.43;2.23;;;15.50;74.30;;;;;;5065055;28;20443;-44
2022/07/02 03:49:44;;;;;;;2.20;2.10;;;15.50;73.40;;;;;;5067475;28;21188;-44
2022/07/02 03:52:11;;;;;;;1.87;1.77;;;15.40;73.60;;;;;;5050069;28;20491;-44
2022/07/02 03:54:37;;;;;;;2.00;1.80;;;15.40;74.30;;;;;;5046579;28;20977;-44
2022/07/02 03:57:05;;;;;;;1.83;1.73;;;15.30;74.50;;;;;;5048600;28;20446;-44
2022/07/02 03:59:32;;;;;;;5.07;1.50;;;15.30;74.50;;;;;;5060888;28;20481;-44
2022/07/02 04:01:59;;;;;;;3.67;1.50;;;15.30;74.30;;;;;;5066648;28;20497;-44
2022/07/02 04:04:26;;;;;;;1.80;1.63;;;15.30;74.40;;;;;;5061098;28;20439;-44
2022/07/02 04:06:52;;;;;;;2.20;1.23;;;15.30;74.50;;;;;;5054977;28;20456;-44
2022/07/02 04:09:19;;;;;;;2.03;1.47;;;15.30;74.50;;;;;;5065334;28;20456;-44
2022/07/02 04:11:46;;;;;;;2.17;1.83;;;15.30;74.50;;;;;;5047728;28;20450;-44
2022/07/02 04:14:12;;;;;;;2.27;1.40;;;15.30;74.80;;;;;;5064765;28;21367;-44
2022/07/02 04:16:39;;;;;;;2.10;1.67;;;15.30;74.70;;;;;;5065727;28;20461;-44
2022/07/02 04:19:06;;;;;;;2.87;1.60;;;15.30;74.60;;;;;;5057254;28;20457;-44
2022/07/02 04:21:41;;;;;;;3.20;1.97;;;15.30;74.40;;;;;;5063167;28;20554;-44
2022/07/02 04:24:08;;;;;;;1.43;1.10;;;15.30;74.30;;;;;;5066974;28;20797;-44
2022/07/02 04:26:35;;;;;;;2.70;2.10;;;15.30;74.30;;;;;;5064868;28;20933;-44
2022/07/02 04:29:01;;;;;;;1.97;1.60;;;15.30;74.60;;;;;;5060899;28;21075;-44
2022/07/02 04:31:29;;;;;;;2.23;2.13;;;15.40;74.70;;;;;;5046778;28;20913;-44
2022/07/02 04:33:56;;;;;;;1.93;1.20;;;15.40;74.80;;;;;;5056572;28;21004;-44
2022/07/02 04:36:23;;;;;;;1.63;1.53;;;15.40;74.90;;;;;;5061784;28;20994;-44
2022/07/02 04:38:50;;;;;;;1.57;1.47;;;15.40;74.80;;;;;;5066115;28;20541;-44
2022/07/02 04:41:17;;;;;;;1.60;1.40;;;15.50;74.50;;;;;;5061158;28;20483;-45
2022/07/02 04:43:43;;;;;;;1.60;1.50;;;15.50;73.90;;;;;;5059898;28;20827;-44
2022/07/02 04:46:10;;;;;;;1.57;1.40;;;15.50;73.80;;;;;;5061302;28;20842;-45
2022/07/02 04:48:37;;;;;;;2.13;2.03;;;15.50;73.80;;;;;;5045357;28;20959;-45
2022/07/02 04:51:04;;;;;;;3.00;1.30;;;15.50;73.80;;;;;;5062470;28;20804;-45
2022/07/02 04:53:31;;;;;;;1.30;1.10;;;15.60;73.60;;;;;;5061978;28;20527;-45
2022/07/02 04:55:57;;;;;;;1.53;1.37;;;15.70;73.00;;;;;;5062859;28;20450;-45
2022/07/02 04:58:24;;;;;;;2.93;1.40;;;15.80;72.40;;;;;;5062397;28;20454;-45
2022/07/02 05:00:51;;;;;;;3.10;2.20;;;15.80;72.10;;;;;;5063311;28;20488;-45
2022/07/02 05:03:18;;;;;;;4.00;1.47;;;15.80;71.90;;;;;;5058108;28;20446;-45
2022/07/02 05:05:45;;;;;;;1.90;1.30;;;15.80;71.90;;;;;;5060979;28;20457;-45
2022/07/02 05:08:11;;;;;;;1.70;1.33;;;15.90;72.10;;;;;;5062768;28;20457;-45
2022/07/02 05:10:38;;;;;;;1.47;1.37;;;16.00;72.00;;;;;;5059467;28;20461;-45
2022/07/02 05:13:05;;;;;;;1.87;1.40;;;16.00;71.90;;;;;;5059478;28;20452;-45
2022/07/02 05:15:32;;;;;;;1.53;1.30;;;16.00;71.70;;;;;;5055813;28;20548;-45
2022/07/02 05:17:58;;;;;;;2.87;1.37;;;16.10;71.60;;;;;;5061134;28;21026;-45
2022/07/02 05:20:27;;;;;;;1.50;1.40;;;16.10;71.50;;;;;;5056777;28;20457;-45
2022/07/02 05:22:54;;;;;;;7.13;1.57;;;16.10;71.90;;;;;;5063609;28;20442;-44
2022/07/02 05:25:21;;;;;;;1.40;1.30;;;16.20;72.00;;;;;;5057239;28;20954;-45
2022/07/02 05:27:48;;;;;;;1.37;1.23;;;16.20;72.10;;;;;;5060233;28;20445;-45
2022/07/02 05:30:14;;;;;;;1.70;1.20;;;16.20;72.00;;;;;;5060303;28;20445;-45
2022/07/02 05:32:41;;;;;;;2.00;1.73;;;16.20;72.10;;;;;;5061101;28;20536;-45
2022/07/02 05:35:08;;;;;;;2.20;1.20;;;16.30;72.20;;;;;;5046724;28;20446;-45
2022/07/02 05:37:35;;;;;;;4.70;1.50;;;16.40;71.70;;;;;;5062551;28;20472;-45
2022/07/02 05:40:03;;;;;;;1.43;1.33;;;16.50;72.20;;;;;;5061492;28;20452;-44
2022/07/02 05:42:29;;;;;;;2.40;1.20;;;16.50;71.50;;;;;;5058414;28;20481;-45
2022/07/02 05:44:57;;;;;;;2.20;1.43;;;16.60;71.10;;;;;;5061505;28;20521;-44
2022/07/02 05:47:24;;;;;;;1.80;1.20;;;16.60;70.80;;;;;;5058506;28;20439;-45
2022/07/02 05:49:50;;;;;;;1.20;1.10;;;16.60;70.90;;;;;;5042827;28;20438;-45
2022/07/02 05:52:18;;;;;;;6.27;1.40;;;16.70;71.60;;;;;;5060385;28;20450;-45
2022/07/02 05:54:45;;;;;;;1.50;1.40;;;16.70;71.40;;;;;;5057280;28;20457;-45
2022/07/02 05:57:12;;;;;;;1.57;1.30;;;16.80;71.40;;;;;;5063621;28;20441;-45
2022/07/02 05:59:41;;;;;;;1.77;1.43;;;16.80;71.90;;;;;;5062489;28;20536;-45
2022/07/02 06:02:08;;;;;;;3.00;1.57;;;16.80;71.60;;;;;;5061554;28;20489;-45
2022/07/02 06:04:34;;;;;;;2.80;1.23;;;16.80;71.50;;;;;;5060309;28;20444;-45
2022/07/02 06:08:02;;;;;;;5.10;1.90;;;16.90;71.30;;;;;;5062878;28;20446;-45
2022/07/02 06:09:58;;;;;;;1.67;1.57;;;16.90;71.00;;;;;;5048180;28;20479;-45
2022/07/02 06:12:25;;;;;;;2.10;1.70;;;17.00;70.70;;;;;;5061071;28;20446;-45
2022/07/02 06:14:52;;;;;;;1.97;1.70;;;17.10;70.50;;;;;;5041141;28;20450;-45
2022/07/02 06:17:19;;;;;;;3.93;1.50;;;17.10;70.50;;;;;;5045516;28;20462;-45
2022/07/02 06:19:48;;;;;;;3.10;2.73;;;17.10;70.80;;;;;;5060409;28;20441;-45
2022/07/02 06:22:15;;;;;;;1.63;1.53;;;17.20;70.50;;;;;;5043334;28;20565;-45
2022/07/02 06:24:41;;;;;;;4.03;1.70;;;17.30;70.50;;;;;;5059681;28;20442;-45
2022/07/02 06:27:09;;;;;;;1.53;1.30;;;17.30;70.10;;;;;;5059472;28;20453;-45
2022/07/02 06:29:36;;;;;;;2.57;1.80;;;17.40;70.20;;;;;;5029324;28;20694;-45
2022/07/02 06:32:04;;;;;;;2.27;1.60;;;17.50;69.70;;;;;;5047548;28;20461;-45
2022/07/02 06:34:30;;;;;;;1.70;1.50;;;17.60;69.30;;;;;;5049806;28;20445;-45
2022/07/02 06:36:57;;;;;;;4.53;2.27;;;17.80;69.30;;;;;;5065791;28;20464;-45
2022/07/02 06:39:25;;;;;;;1.80;1.70;;;17.80;69.50;;;;;;5064259;28;20445;-45
2022/07/02 06:44:38;;;;;;;2.00;1.60;;;18.00;69.40;;;;;;5064425;28;20460;-45
2022/07/02 06:47:05;;;;;;;3.67;1.77;;;18.20;68.80;;;;;;5050488;28;20820;-45
2022/07/02 06:49:32;;;;;;;2.23;1.97;;;18.30;68.80;;;;;;5064772;28;20519;-45
2022/07/02 06:51:59;;;;;;;3.10;2.03;;;18.40;68.40;;;;;;5048445;28;20797;-45
2022/07/02 06:54:25;;;;;;;3.70;2.50;;;18.50;68.40;;;;;;5065752;28;20484;-45
2022/07/02 06:56:52;;;;;;;4.20;2.97;;;18.60;68.60;;;;;;5051364;28;20815;-45
2022/07/02 06:59:19;;;;;;;9.50;3.10;;;18.70;69.30;;;;;;5061555;28;20446;-46
2022/07/02 07:01:46;;;;;;;6.00;3.20;;;18.80;69.30;;;;;;5049027;28;20499;-45
2022/07/02 07:04:34;;;;;;;4.97;3.30;;;19.00;68.40;;;;;;5065905;28;20956;-45
2022/07/02 07:07:04;;;;;;;5.50;3.70;;;19.20;68.50;;;;;;5065741;28;20524;-45
2022/07/02 07:09:31;;;;;;;4.03;3.63;;;19.20;68.90;;;;;;5062631;28;20490;-45
2022/07/02 07:12:00;;;;;;;7.90;3.80;;;19.30;69.10;;;;;;5063239;28;20447;-45
2022/07/02 07:14:28;;;;;;;6.43;3.80;;;19.40;69.30;;;;;;5064942;28;20832;-45
2022/07/02 07:16:54;;;;;;;6.87;4.27;;;19.60;69.10;;;;;;5047222;28;20460;-45
2022/07/02 07:19:21;;;;;;;6.47;4.57;;;19.70;68.40;;;;;;5066317;28;20457;-45
2022/07/02 07:21:48;;;;;;;4.57;4.00;;;19.90;67.80;;;;;;5064768;28;20817;-45
2022/07/02 07:24:15;;;;;;;6.27;4.50;;;20.00;67.70;;;;;;5061645;28;20821;-45
2022/07/02 07:26:42;;;;;;;5.10;4.30;;;20.10;67.70;;;;;;5040720;28;20456;-46
2022/07/02 07:29:09;;;;;;;4.87;3.70;;;20.30;67.20;;;;;;5060228;28;20459;-45
2022/07/02 07:31:36;;;;;;;4.60;3.47;;;20.50;66.50;;;;;;5064704;28;20447;-45
2022/07/02 07:34:03;;;;;;;6.97;3.93;;;20.60;65.90;;;;;;5065310;28;20823;-45
2022/07/02 07:36:30;;;;;;;4.80;3.70;;;20.80;65.40;;;;;;5062189;28;20442;-45
2022/07/02 07:38:57;;;;;;;5.03;3.27;;;20.90;64.90;;;;;;5061791;28;20445;-45
2022/07/02 07:41:24;;;;;;;5.40;3.27;;;21.10;65.60;;;;;;5064860;28;20489;-45
2022/07/02 07:43:52;;;;;;;5.57;4.00;;;21.30;64.70;;;;;;5062947;28;20548;-45
2022/07/02 07:46:22;;;;;;;7.17;3.37;;;21.40;63.90;;;;;;5062966;28;20520;-46
2022/07/02 07:48:48;;;;;;;4.73;3.77;;;21.60;63.40;;;;;;5050415;28;20989;-45
2022/07/02 07:51:15;;;;;;;4.87;3.60;;;21.70;63.00;;;;;;5059835;28;21008;-46
2022/07/02 07:53:45;;;;;;;4.83;3.43;;;21.90;63.50;;;;;;5064509;28;20445;-45
2022/07/02 07:56:21;;;;;;;3.93;3.63;;;22.10;62.50;;;;;;5049139;28;20938;-45
2022/07/02 07:58:48;;;;;;;5.37;3.37;;;22.30;61.40;;;;;;5066756;28;20441;-45
2022/07/02 08:01:15;;;;;;;2.97;2.73;;;22.40;61.10;;;;;;5044135;28;20495;-45
2022/07/02 08:03:42;;;;;;;3.53;3.23;;;22.60;62.00;;;;;;5046830;28;20467;-45
2022/07/02 08:06:09;;;;;;;5.07;3.57;;;22.80;61.20;;;;;;5062466;28;20630;-45
2022/07/02 08:08:36;;;;;;;5.53;3.17;;;23.00;59.90;;;;;;5060856;28;20536;-45
2022/07/02 08:11:03;;;;;;;5.30;3.77;;;23.10;59.40;;;;;;5051780;28;20441;-45
2022/07/02 08:13:31;;;;;;;4.90;2.47;;;23.30;57.90;;;;;;5060999;28;20444;-45
2022/07/02 08:15:59;;;;;;;4.00;3.10;;;23.40;57.90;;;;;;5048373;28;21209;-46
2022/07/02 08:18:27;;;;;;;4.03;3.20;;;23.50;57.60;;;;;;5061046;28;20438;-46
2022/07/02 08:20:54;;;;;;;8.30;3.63;;;23.70;57.60;;;;;;5051584;28;20539;-45
2022/07/02 08:23:21;;;;;;;4.27;3.47;;;23.80;57.60;;;;;;5046529;28;20631;-45
2022/07/02 08:25:48;;;;;;;6.43;2.70;;;24.00;57.70;;;;;;5060548;28;20449;-46
2022/07/02 08:28:15;;;;;;;3.90;3.10;;;24.10;57.10;;;;;;5061899;28;20453;-46
2022/07/02 08:30:42;;;;;;;3.60;3.30;;;24.30;55.90;;;;;;5046471;28;20459;-45
2022/07/02 08:33:09;;;;;;;6.10;3.13;;;24.40;55.40;;;;;;5048249;28;20445;-45
2022/07/02 08:35:36;;;;;;;3.90;2.17;;;24.60;55.30;;;;;;5045985;28;20472;-45
2022/07/02 08:38:02;;;;;;;3.77;1.73;;;24.70;51.50;;;;;;5060217;28;20464;-46
2022/07/02 08:40:30;;;;;;;3.37;2.03;;;24.80;51.50;;;;;;5063601;28;20444;-46
2022/07/02 08:42:59;;;;;;;2.33;1.80;;;24.90;51.10;;;;;;5063136;28;21037;-46
2022/07/02 08:45:30;;;;;;;2.73;2.03;;;25.00;49.20;;;;;;5049139;28;20456;-46
2022/07/02 08:47:58;;;;;;;5.40;1.80;;;25.10;49.10;;;;;;5061012;28;20445;-46
2022/07/02 08:50:26;;;;;;;3.17;1.70;;;25.30;49.00;;;;;;5047384;28;20477;-46
2022/07/02 08:52:54;;;;;;;4.10;1.50;;;25.50;47.90;;;;;;5039775;28;20542;-46
2022/07/02 08:55:22;;;;;;;2.47;1.60;;;25.60;48.30;;;;;;5060653;28;20890;-46
2022/07/02 08:57:50;;;;;;;2.93;1.43;;;25.70;47.60;;;;;;5061178;28;20935;-46
2022/07/02 09:00:19;;;;;;;1.63;1.50;;;25.80;47.70;;;;;;5060725;28;20466;-46
2022/07/02 09:02:53;;;;;;;1.60;1.50;;;25.90;47.90;;;;;;5045946;28;20568;-45
2022/07/02 09:05:21;;;;;;;1.93;1.70;;;26.00;47.80;;;;;;5060632;28;20545;-46
2022/07/02 09:07:50;;;;;;;1.43;1.33;;;26.10;46.70;;;;;;5026501;28;20442;-46
2022/07/02 09:10:20;;;;;;;2.10;0.97;;;26.30;45.60;;;;;;5062150;28;20452;-46
2022/07/02 09:12:47;;;;;;;2.30;1.50;;;26.30;45.40;;;;;;5044588;28;21023;-46
2022/07/02 09:15:14;;;;;;;2.53;1.50;;;26.40;45.40;;;;;;5063155;28;20812;-46
2022/07/02 09:17:42;;;;;;;4.53;1.40;;;26.50;45.10;;;;;;5062812;28;20457;-46
2022/07/02 09:20:11;;;;;;;2.50;1.33;;;26.50;45.00;;;;;;5060261;28;20454;-46
2022/07/02 09:22:41;;;;;;;3.83;1.27;;;26.60;45.70;;;;;;5062099;28;20492;-46
2022/07/02 09:25:08;;;;;;;0.80;0.80;;;26.70;45.90;;;;;;5046891;28;20809;-45
2022/07/02 09:27:35;;;;;;;1.70;0.80;;;26.80;44.60;;;;;;5048682;28;20737;-46
2022/07/02 09:30:04;;;;;;;2.73;0.87;;;27.00;43.20;;;;;;5056104;28;20438;-46
2022/07/02 09:32:38;;;;;;;2.27;0.90;;;27.10;42.20;;;;;;5059289;28;20807;-46
2022/07/02 09:35:05;;;;;;;1.33;0.70;;;27.30;41.90;;;;;;5045372;28;20452;-46
2022/07/02 09:37:32;;;;;;;2.10;1.23;;;27.50;41.90;;;;;;5060224;28;20206;-45
2022/07/02 09:40:02;;;;;;;2.50;1.07;;;27.70;42.00;;;;;;5063239;28;20996;-46
2022/07/02 09:42:34;;;;;;;1.10;1.00;;;27.90;41.20;;;;;;5059228;28;20253;-46
2022/07/02 09:45:08;;;;;;;1.20;0.70;;;28.00;41.30;;;;;;5048173;28;20445;-46
2022/07/02 09:47:40;;;;;;;1.00;0.80;;;28.10;40.10;;;;;;5058094;28;20202;-46
2022/07/02 09:50:09;;;;;;;1.10;0.70;;;28.20;39.70;;;;;;5061435;28;20641;-45
2022/07/02 09:52:46;;;;;;;1.77;0.70;;;28.20;38.80;;;;;;5057969;28;20211;-45
2022/07/02 09:55:23;;;;;;;2.10;0.73;;;28.40;39.20;;;;;;5053410;28;20211;-45
2022/07/02 09:57:58;;;;;;;2.53;1.00;;;28.70;39.50;;;;;;5044669;28;20290;-46
2022/07/02 10:00:28;;;;;;;1.05;0.63;;;28.90;39.10;;;;;;5061779;28;20606;-46
2022/07/02 10:02:56;;;;;;;0.93;0.80;;;29.00;37.80;;;;;;5062304;28;20255;-45
2022/07/02 10:05:29;;;;;;;1.20;0.82;;;29.10;37.20;;;;;;5061984;28;20723;-45
2022/07/02 10:07:57;;;;;;;0.93;0.88;;;29.10;38.10;;;;;;5043226;28;20199;-45
2022/07/02 10:10:33;;;;;;;1.50;1.05;;;29.20;38.30;;;;;;5048051;28;20206;-45
2022/07/02 10:12:59;;;;;;;3.50;1.33;;;29.40;38.00;;;;;;5060669;28;20209;-46
2022/07/02 10:15:31;;;;;;;0.88;0.77;;;29.50;38.30;;;;;;5043746;28;20210;-45
2022/07/02 10:18:00;;;;;;;1.65;0.82;;;29.70;37.20;;;;;;5059996;28;20599;-45
2022/07/02 10:20:29;;;;;;;2.72;0.80;;;29.70;35.30;;;;;;5059956;28;20217;-45
2022/07/02 10:23:02;;;;;;;1.17;0.77;;;29.80;34.40;;;;;;5059458;28;20269;-45
2022/07/02 10:25:31;;;;;;;0.93;0.52;;;29.80;34.80;;;;;;5054336;28;20202;-45
2022/07/02 10:27:57;;;;;;;0.85;0.60;;;29.70;35.50;;;;;;5058250;28;20211;-45
2022/07/02 10:30:33;;;;;;;1.10;0.65;;;29.70;35.50;;;;;;5042753;28;20214;-45
2022/07/02 10:33:25;;;;;;;0.77;0.40;;;29.80;34.40;;;;;;5060717;28;20702;-45
2022/07/02 10:35:53;;;;;;;1.00;0.40;;;29.70;33.30;;;;;;5056716;28;20657;-45
2022/07/02 10:38:30;;;;;;;3.38;0.65;;;29.40;34.10;;;;;;5046391;28;20221;-45
2022/07/02 10:40:57;;;;;;;0.93;0.50;;;29.20;34.30;;;;;;5060940;28;20206;-45
2022/07/02 10:43:29;;;;;;;2.00;0.85;;;29.10;34.00;;;;;;5057568;28;20266;-45
2022/07/02 10:46:10;;;;;;;3.47;1.40;;;29.00;33.90;;;;;;5059192;28;20249;-45
2022/07/02 10:48:51;;;;;;;2.10;0.80;;;28.90;34.70;;;;;;5043217;28;20203;-45
2022/07/02 10:51:38;;;;;;;0.60;0.53;;;28.80;35.40;;;;;;5057179;28;20298;-45
2022/07/02 10:54:06;;;;;;;2.97;1.20;;;28.60;35.50;;;;;;5060560;28;20221;-45
2022/07/02 10:56:54;;;;;;;1.27;0.60;;;28.40;36.10;;;;;;5045161;28;20210;-45
2022/07/02 10:59:26;;;;;;;3.13;0.80;;;28.20;36.40;;;;;;5060808;28;20242;-45
2022/07/02 11:02:08;;;;;;;1.00;0.60;;;28.00;36.50;;;;;;5045876;28;20219;-45
2022/07/02 11:04:36;;;;;;;3.37;1.00;;;27.90;38.30;;;;;;5041244;28;20287;-45
2022/07/02 11:07:07;;;;;;;2.83;1.00;;;27.70;39.40;;;;;;5062235;28;20698;-45
2022/07/02 11:09:51;;;;;;;0.80;0.70;;;27.60;38.20;;;;;;5060305;28;20261;-45
2022/07/02 11:12:44;;;;;;;0.87;0.80;;;27.40;38.20;;;;;;5042861;28;20215;-45
2022/07/02 11:15:19;;;;;;;1.33;0.80;;;27.20;38.70;;;;;;5042856;28;20209;-45
2022/07/02 11:17:51;;;;;;;1.13;0.90;;;27.10;39.50;;;;;;5058269;28;20215;-45
2022/07/02 11:20:27;;;;;;;1.90;0.60;;;26.90;40.70;;;;;;5064278;28;20446;-45
2022/07/02 11:22:57;;;;;;;1.47;0.93;;;26.80;40.80;;;;;;5064942;28;20569;-54
2022/07/02 11:25:24;;;;;;;1.57;1.30;;;26.70;40.50;;;;;;5053253;28;20949;-45
2022/07/02 11:27:56;;;;;;;2.10;1.57;;;26.60;41.20;;;;;;5061895;28;21145;-45
2022/07/02 11:30:25;;;;;;;1.70;0.70;;;26.50;41.90;;;;;;5044383;28;20951;-45
2022/07/02 11:32:52;;;;;;;0.83;0.60;;;26.40;40.60;;;;;;5066323;28;20445;-45
2022/07/02 11:35:19;;;;;;;2.10;0.90;;;26.30;40.30;;;;;;5063439;28;20460;-45
2022/07/02 11:37:46;;;;;;;1.63;1.00;;;26.30;41.50;;;;;;5059922;28;20441;-45
2022/07/02 11:40:21;;;;;;;1.93;1.20;;;26.20;43.30;;;;;;5061783;28;20950;-46
2022/07/02 11:42:48;;;;;;;1.03;1.00;;;26.20;43.70;;;;;;5060591;28;20488;-45
2022/07/02 11:45:15;;;;;;;1.90;1.07;;;26.10;43.40;;;;;;5063649;28;20457;-45
2022/07/02 11:47:50;;;;;;;2.20;1.23;;;26.10;43.80;;;;;;5061218;28;20516;-45
2022/07/02 11:50:28;;;;;;;2.37;1.10;;;26.10;43.80;;;;;;5057861;28;20482;-45
2022/07/02 11:52:55;;;;;;;1.20;1.10;;;26.10;43.60;;;;;;5061681;28;20440;-45
2022/07/02 11:55:23;;;;;;;3.27;1.20;;;26.00;43.50;;;;;;5061403;28;20876;-45
2022/07/02 11:57:51;;;;;;;3.43;1.23;;;26.00;43.60;;;;;;5060335;28;21005;-45
2022/07/02 12:00:19;;;;;;;2.30;1.03;;;26.00;43.80;;;;;;5062668;28;20473;-45
2022/07/02 12:02:45;;;;;;;1.67;1.17;;;26.00;43.40;;;;;;5061543;28;20552;-45
2022/07/02 12:05:17;;;;;;;1.20;1.10;;;26.00;43.50;;;;;;5046545;28;20828;-45
2022/07/02 12:07:45;;;;;;;1.30;1.20;;;26.00;44.00;;;;;;5065658;28;20441;-45
2022/07/02 12:10:14;;;;;;;2.13;1.20;;;25.90;44.30;;;;;;5062503;28;20446;-45
2022/07/02 12:12:41;;;;;;;1.30;1.10;;;25.90;43.60;;;;;;5066648;28;20449;-45
2022/07/02 12:15:10;;;;;;;1.40;1.30;;;25.90;43.50;;;;;;5047489;28;20456;-45
2022/07/02 12:17:49;;;;;;;1.50;1.00;;;25.90;44.20;;;;;;5061693;28;20456;-45
2022/07/02 12:20:18;;;;;;;2.67;1.00;;;25.90;44.20;;;;;;5061625;28;20469;-45
2022/07/02 12:22:52;;;;;;;1.20;1.07;;;25.90;44.20;;;;;;5064355;28;20484;-45
2022/07/02 12:25:19;;;;;;;2.40;1.00;;;25.90;43.90;;;;;;5062755;28;20442;-45
2022/07/02 12:27:53;;;;;;;1.23;0.90;;;25.90;44.10;;;;;;5065371;28;20451;-45
2022/07/02 12:30:20;;;;;;;2.10;0.93;;;25.90;44.70;;;;;;5062179;28;20827;-45
2022/07/02 12:32:52;;;;;;;0.83;0.83;;;26.00;44.80;;;;;;5041812;28;20450;-45
2022/07/02 12:35:19;;;;;;;1.13;1.03;;;26.00;44.70;;;;;;5048145;28;20957;-45
2022/07/02 12:37:51;;;;;;;1.13;1.03;;;26.00;44.50;;;;;;5062683;28;20548;-45
2022/07/02 12:40:21;;;;;;;1.60;1.30;;;26.00;43.60;;;;;;5048993;28;20457;-45
2022/07/02 12:42:55;;;;;;;2.17;0.90;;;26.00;44.50;;;;;;5059674;28;20514;-45
2022/07/02 12:45:26;;;;;;;2.80;0.90;;;26.10;44.30;;;;;;5063187;28;20452;-45
2022/07/02 12:48:02;;;;;;;0.83;0.80;;;26.10;44.30;;;;;;5062771;28;20980;-45
2022/07/02 12:50:31;;;;;;;0.80;0.80;;;26.20;43.70;;;;;;5043375;28;20468;-44
2022/07/02 12:53:07;;;;;;;1.00;0.80;;;26.20;43.70;;;;;;5056472;28;20449;-45
2022/07/02 12:55:38;;;;;;;1.67;1.13;;;26.20;44.00;;;;;;5064996;28;20535;-45
2022/07/02 12:58:07;;;;;;;1.23;1.13;;;26.20;45.00;;;;;;5043839;28;20460;-45
2022/07/02 13:00:36;;;;;;;1.60;0.97;;;26.10;45.00;;;;;;5060540;28;20474;-45
2022/07/02 13:03:14;;;;;;;1.03;0.90;;;26.00;44.20;;;;;;5058896;28;20572;-45